createdAt,value
2019-05-07T00:01:02.725Z,79.20
2019-05-07T00:03:32.872Z,79.00
2019-05-07T00:06:02.806Z,79.30
2019-05-07T00:08:32.264Z,77.90
2019-05-07T00:11:02.376Z,77.80
2019-05-07T00:13:33.342Z,79.10
2019-05-07T00:16:02.607Z,78.30
2019-05-07T00:18:32.197Z,77.80
2019-05-07T00:21:03.383Z,77.70
2019-05-07T00:23:32.555Z,78.10
2019-05-07T00:26:03.256Z,78.10
2019-05-07T00:28:32.558Z,79.80
2019-05-07T00:31:02.828Z,81.50
2019-05-07T00:33:32.911Z,82.10
2019-05-07T00:36:13.236Z,82.30
2019-05-07T00:38:44.726Z,82.00
2019-05-07T00:41:19.734Z,82.60
2019-05-07T00:43:52.490Z,83.00
2019-05-07T00:46:24.406Z,84.10
2019-05-07T00:48:53.292Z,84.60
2019-05-07T00:51:30.570Z,84.30
2019-05-07T00:54:02.697Z,84.60
2019-05-07T00:56:33.021Z,84.20
2019-05-07T00:59:02.214Z,82.70
2019-05-07T01:01:32.332Z,84.00
2019-05-07T01:04:02.661Z,82.50
2019-05-07T01:06:33.085Z,83.50
2019-05-07T01:09:03.474Z,83.70
2019-05-07T01:11:33.472Z,83.60
2019-05-07T01:14:02.919Z,83.10
2019-05-07T01:16:32.949Z,84.30
2019-05-07T01:19:02.218Z,83.90
2019-05-07T01:21:32.431Z,83.80
2019-05-07T01:24:03.225Z,83.00
2019-05-07T01:26:33.157Z,82.50
2019-05-07T01:29:03.202Z,82.30
2019-05-07T01:31:43.109Z,82.30
2019-05-07T01:34:23.646Z,82.40
2019-05-07T01:36:52.479Z,83.80
2019-05-07T01:39:23.192Z,82.00
2019-05-07T01:41:52.513Z,82.40
2019-05-07T01:44:22.146Z,82.70
2019-05-07T01:46:52.954Z,82.60
2019-05-07T01:49:23.843Z,82.30
2019-05-07T01:51:52.969Z,82.00
2019-05-07T01:54:23.755Z,82.50
2019-05-07T01:56:52.371Z,82.40
2019-05-07T01:59:22.512Z,82.50
2019-05-07T02:01:52.996Z,82.30
2019-05-07T02:04:33.688Z,82.60
2019-05-07T02:07:22.580Z,82.80
2019-05-07T02:09:56.650Z,83.10
2019-05-07T02:12:31.782Z,83.20
2019-05-07T02:15:02.600Z,83.50
2019-05-07T02:17:32.239Z,84.30
2019-05-07T02:20:02.662Z,84.20
2019-05-07T02:22:32.088Z,83.80
2019-05-07T02:25:03.071Z,83.60
2019-05-07T02:27:32.846Z,84.00
2019-05-07T02:30:04.142Z,85.30
2019-05-07T02:32:33.470Z,83.90
2019-05-07T02:35:03.965Z,84.80
2019-05-07T02:37:48.409Z,83.90
2019-05-07T02:40:22.953Z,83.00
2019-05-07T02:42:54.065Z,83.00
2019-05-07T02:45:39.799Z,83.40
2019-05-07T02:48:08.935Z,83.40
2019-05-07T02:51:04.186Z,83.10
2019-05-07T02:53:45.500Z,83.20
2019-05-07T02:56:14.218Z,82.20
2019-05-07T02:58:43.558Z,83.00
2019-05-07T03:01:13.815Z,81.50
2019-05-07T03:03:44.945Z,82.00
2019-05-07T03:06:13.904Z,81.20
2019-05-07T03:08:43.921Z,81.00
2019-05-07T03:11:14.271Z,81.60
2019-05-07T03:13:43.600Z,83.00
2019-05-07T03:16:13.240Z,83.10
2019-05-07T03:18:43.895Z,83.50
2019-05-07T03:21:15.722Z,83.30
2019-05-07T03:24:03.508Z,83.60
2019-05-07T03:26:34.637Z,83.00
2019-05-07T03:29:06.930Z,82.70
2019-05-07T03:31:56.259Z,82.90
2019-05-07T03:34:47.415Z,83.40
2019-05-07T03:37:19.743Z,83.00
2019-05-07T03:39:48.513Z,82.10
2019-05-07T03:42:17.304Z,82.40
2019-05-07T03:44:53.757Z,82.90
2019-05-07T03:47:29.112Z,83.00
2019-05-07T03:49:57.935Z,83.30
2019-05-07T03:52:26.698Z,82.90
2019-05-07T03:54:55.438Z,82.70
2019-05-07T03:57:24.207Z,83.40
2019-05-07T03:59:53.487Z,84.20
2019-05-07T04:02:23.809Z,84.10
2019-05-07T04:04:53.153Z,83.30
2019-05-07T04:07:23.286Z,84.10
2019-05-07T04:09:53.509Z,83.40
2019-05-07T04:12:23.976Z,82.90
2019-05-07T04:14:53.586Z,82.90
2019-05-07T04:17:26.717Z,83.40
2019-05-07T04:19:53.390Z,83.70
2019-05-07T04:22:25.218Z,84.30
2019-05-07T04:25:13.160Z,84.90
2019-05-07T04:27:48.481Z,84.30
2019-05-07T04:30:17.385Z,84.50
2019-05-07T04:32:52.775Z,84.60
2019-05-07T04:35:33.161Z,85.40
2019-05-07T04:38:03.398Z,84.30
2019-05-07T04:40:33.648Z,85.20
2019-05-07T04:43:04.190Z,84.70
2019-05-07T04:45:33.805Z,84.30
2019-05-07T04:48:03.299Z,84.20
2019-05-07T04:50:42.558Z,84.40
2019-05-07T04:53:04.766Z,84.10
2019-05-07T04:55:33.775Z,83.50
2019-05-07T04:58:04.542Z,83.40
2019-05-07T05:00:33.772Z,83.50
2019-05-07T05:03:23.718Z,83.20
2019-05-07T05:05:53.190Z,83.00
2019-05-07T05:08:23.629Z,82.90
2019-05-07T05:10:53.829Z,82.60
2019-05-07T05:13:23.849Z,83.70
2019-05-07T05:15:53.063Z,82.80
2019-05-07T05:18:22.176Z,83.00
2019-05-07T05:21:19.400Z,82.80
2019-05-07T05:24:01.878Z,82.00
2019-05-07T05:26:32.653Z,81.50
2019-05-07T05:29:02.402Z,81.80
2019-05-07T05:31:33.048Z,81.70
2019-05-07T05:34:02.292Z,81.30
2019-05-07T05:36:32.957Z,81.00
2019-05-07T05:39:02.463Z,81.30
2019-05-07T05:41:34.080Z,80.30
2019-05-07T05:44:07.304Z,80.70
2019-05-07T05:46:36.053Z,80.40
2019-05-07T05:49:04.943Z,81.00
2019-05-07T05:51:52.501Z,80.20
2019-05-07T05:54:34.803Z,80.10
2019-05-07T05:57:23.007Z,80.00
2019-05-07T06:00:06.107Z,80.30
2019-05-07T06:02:57.144Z,79.60
2019-05-07T06:05:47.853Z,79.10
2019-05-07T06:08:34.471Z,78.90
2019-05-07T06:11:08.912Z,79.00
2019-05-07T06:13:59.767Z,78.40
2019-05-07T06:16:36.600Z,78.00
2019-05-07T06:19:18.607Z,77.00
2019-05-07T06:24:58.466Z,77.40
2019-05-07T06:27:27.209Z,76.70
2019-05-07T06:29:56.375Z,76.10
2019-05-07T06:32:25.259Z,74.80
2019-05-07T06:34:54.172Z,75.20
2019-05-07T06:37:23.005Z,74.80
2019-05-07T06:40:12.122Z,74.70
2019-05-07T06:42:52.355Z,74.70
2019-05-07T06:45:24.735Z,74.30
2019-05-07T06:47:53.476Z,73.50
2019-05-07T06:50:22.270Z,73.30
2019-05-07T06:52:51.910Z,72.40
2019-05-07T06:55:22.798Z,71.80
2019-05-07T06:57:53.065Z,71.80
2019-05-07T07:00:42.474Z,71.80
2019-05-07T07:03:26.866Z,70.60
2019-05-07T07:06:19.046Z,70.40
2019-05-07T07:08:54.791Z,69.80
2019-05-07T07:11:32.370Z,69.10
2019-05-07T07:14:02.612Z,69.20
2019-05-07T07:16:32.609Z,68.40
2019-05-07T07:19:03.345Z,68.40
2019-05-07T07:21:32.791Z,68.10
2019-05-07T07:24:03.019Z,68.30
2019-05-07T07:26:33.538Z,67.60
2019-05-07T07:29:02.280Z,68.20
2019-05-07T07:31:44.855Z,67.90
2019-05-07T07:34:13.603Z,69.20
2019-05-07T07:37:03.089Z,68.20
2019-05-07T07:39:22.057Z,67.60
2019-05-07T07:41:53.598Z,68.00
2019-05-07T07:44:22.467Z,67.10
2019-05-07T07:46:53.123Z,66.30
2019-05-07T07:49:22.201Z,66.90
2019-05-07T07:51:52.547Z,66.20
2019-05-07T07:54:22.718Z,66.40
2019-05-07T07:57:09.446Z,67.10
2019-05-07T07:59:56.123Z,65.60
2019-05-07T08:02:32.706Z,65.10
2019-05-07T08:05:02.118Z,64.40
2019-05-07T08:07:32.992Z,62.70
2019-05-07T08:10:02.569Z,63.00
2019-05-07T08:12:32.513Z,64.20
2019-05-07T08:15:14.544Z,64.10
2019-05-07T08:17:32.723Z,64.30
2019-05-07T08:20:02.637Z,64.80
2019-05-07T08:22:33.007Z,64.90
2019-05-07T08:25:03.619Z,62.60
2019-05-07T08:27:32.587Z,63.90
2019-05-07T08:30:02.946Z,62.90
2019-05-07T08:32:38.998Z,61.20
2019-05-07T08:35:15.318Z,61.70
2019-05-07T08:37:44.076Z,61.60
2019-05-07T08:40:13.469Z,61.00
2019-05-07T08:42:42.215Z,62.40
2019-05-07T08:45:29.440Z,59.70
2019-05-07T08:48:02.084Z,60.70
2019-05-07T08:50:32.661Z,59.10
2019-05-07T08:53:02.808Z,58.60
2019-05-07T08:55:32.225Z,59.30
2019-05-07T08:58:02.181Z,58.20
2019-05-07T09:00:32.611Z,57.30
2019-05-07T09:03:01.792Z,57.10
2019-05-07T09:05:32.339Z,57.60
2019-05-07T09:08:02.271Z,57.20
2019-05-07T09:10:32.495Z,57.40
2019-05-07T09:13:02.782Z,56.70
2019-05-07T09:15:32.139Z,57.20
2019-05-07T09:18:02.073Z,57.60
2019-05-07T09:20:32.193Z,57.40
2019-05-07T09:23:02.091Z,57.00
2019-05-07T09:25:34.276Z,57.50
2019-05-07T09:28:03.191Z,57.10
2019-05-07T09:31:03.171Z,57.30
2019-05-07T09:33:45.271Z,58.30
2019-05-07T09:36:22.615Z,58.20
2019-05-07T09:38:56.719Z,57.10
2019-05-07T09:41:27.446Z,57.00
2019-05-07T09:43:59.375Z,57.50
2019-05-07T09:46:28.250Z,57.80
2019-05-07T09:48:57.095Z,57.70
2019-05-07T09:51:25.886Z,57.10
2019-05-07T09:53:54.662Z,56.50
2019-05-07T09:56:23.447Z,57.40
2019-05-07T09:58:53.872Z,57.90
2019-05-07T10:01:23.671Z,58.50
2019-05-07T10:03:53.063Z,59.00
2019-05-07T10:06:22.915Z,59.40
2019-05-07T10:08:52.442Z,58.70
2019-05-07T10:11:37.006Z,58.80
2019-05-07T10:14:09.441Z,57.40
2019-05-07T10:17:02.613Z,56.80
2019-05-07T10:19:32.525Z,56.90
2019-05-07T10:22:02.304Z,57.10
2019-05-07T10:24:31.654Z,55.30
2019-05-07T10:27:02.217Z,56.50
2019-05-07T10:29:32.270Z,56.00
2019-05-07T10:32:02.404Z,55.50
2019-05-07T10:34:31.198Z,55.50
2019-05-07T10:37:00.076Z,54.30
2019-05-07T10:39:28.907Z,54.70
2019-05-07T10:42:01.844Z,55.30
2019-05-07T10:44:36.459Z,53.50
2019-05-07T10:47:42.560Z,52.10
2019-05-07T10:50:17.866Z,54.00
2019-05-07T10:52:46.829Z,53.20
2019-05-07T10:55:16.258Z,53.00
2019-05-07T10:57:45.017Z,52.70
2019-05-07T11:00:17.017Z,52.80
2019-05-07T11:02:45.880Z,53.30
2019-05-07T11:05:15.741Z,54.70
2019-05-07T11:07:44.617Z,53.60
2019-05-07T11:10:14.276Z,53.70
2019-05-07T11:12:43.220Z,54.40
2019-05-07T11:15:12.779Z,53.70
2019-05-07T11:17:53.574Z,52.60
2019-05-07T11:20:22.651Z,52.20
2019-05-07T11:23:10.804Z,50.60
2019-05-07T11:25:39.650Z,51.10
2019-05-07T11:28:09.319Z,51.70
2019-05-07T11:30:38.199Z,52.00
2019-05-07T11:33:07.220Z,52.90
2019-05-07T11:35:36.191Z,53.20
2019-05-07T11:38:17.655Z,53.10
2019-05-07T11:40:36.064Z,53.50
2019-05-07T11:43:14.140Z,51.90
2019-05-07T11:45:48.271Z,52.80
2019-05-07T11:48:18.296Z,52.40
2019-05-07T11:51:04.329Z,51.00
2019-05-07T11:53:32.831Z,50.90
2019-05-07T11:56:02.591Z,50.90
2019-05-07T11:58:32.557Z,51.50
2019-05-07T12:01:13.847Z,50.70
2019-05-07T12:03:42.950Z,50.80
2019-05-07T12:06:12.461Z,49.30
2019-05-07T12:08:48.268Z,49.30
2019-05-07T12:11:12.054Z,49.70
2019-05-07T12:13:42.755Z,49.70
2019-05-07T12:16:14.106Z,48.60
2019-05-07T12:18:43.109Z,50.20
2019-05-07T12:21:20.208Z,49.30
2019-05-07T12:23:42.880Z,49.50
2019-05-07T12:26:12.543Z,49.30
2019-05-07T12:28:42.019Z,49.00
2019-05-07T12:31:22.443Z,50.50
2019-05-07T12:34:16.421Z,50.40
2019-05-07T12:36:45.340Z,49.30
2019-05-07T12:39:14.268Z,50.10
2019-05-07T12:41:43.172Z,50.50
2019-05-07T12:44:12.988Z,50.50
2019-05-07T12:46:42.511Z,50.60
2019-05-07T12:49:12.124Z,49.40
2019-05-07T12:51:55.766Z,49.10
2019-05-07T12:54:36.675Z,50.20
2019-05-07T12:57:05.729Z,50.70
2019-05-07T12:59:53.792Z,51.20
2019-05-07T13:02:41.063Z,50.70
2019-05-07T13:05:08.659Z,51.70
2019-05-07T13:08:02.612Z,53.40
2019-05-07T13:10:32.466Z,53.20
2019-05-07T13:13:02.203Z,54.00
2019-05-07T13:15:32.644Z,54.10
2019-05-07T13:18:02.786Z,55.10
2019-05-07T13:20:32.083Z,55.60
2019-05-07T13:23:00.844Z,56.00
2019-05-07T13:25:29.721Z,56.50
2019-05-07T13:27:58.971Z,56.00
2019-05-07T13:30:27.962Z,55.80
2019-05-07T13:33:02.003Z,55.40
2019-05-07T13:35:32.052Z,55.30
2019-05-07T13:38:23.326Z,56.10
2019-05-07T13:40:55.374Z,55.40
2019-05-07T13:43:28.982Z,56.20
2019-05-07T13:46:02.604Z,55.60
2019-05-07T13:48:31.977Z,56.10
2019-05-07T13:51:01.783Z,54.60
2019-05-07T13:53:32.276Z,54.80
2019-05-07T13:56:02.341Z,53.90
2019-05-07T13:58:32.919Z,54.00
2019-05-07T14:01:12.200Z,52.60
2019-05-07T14:03:41.142Z,51.80
2019-05-07T14:06:12.644Z,52.30
2019-05-07T14:08:42.728Z,51.10
2019-05-07T14:11:12.251Z,52.30
2019-05-07T14:13:43.422Z,51.80
2019-05-07T14:16:13.331Z,51.20
2019-05-07T14:18:42.224Z,49.80
2019-05-07T14:21:13.002Z,49.20
2019-05-07T14:23:42.820Z,49.90
2019-05-07T14:26:12.159Z,48.50
2019-05-07T14:28:42.316Z,51.60
2019-05-07T14:31:12.305Z,50.30
2019-05-07T14:33:54.143Z,48.40
2019-05-07T14:36:28.231Z,49.30
2019-05-07T14:38:57.093Z,49.10
2019-05-07T14:41:25.950Z,49.50
2019-05-07T14:44:13.071Z,48.80
2019-05-07T14:46:50.326Z,50.10
2019-05-07T14:49:12.873Z,50.80
2019-05-07T14:51:41.751Z,50.20
2019-05-07T14:54:12.327Z,50.70
2019-05-07T14:56:42.875Z,51.90
2019-05-07T14:59:12.827Z,50.80
2019-05-07T15:01:42.948Z,50.90
2019-05-07T15:04:12.905Z,50.50
2019-05-07T15:06:42.059Z,50.10
2019-05-07T15:09:12.117Z,51.50
2019-05-07T15:11:42.506Z,51.40
2019-05-07T15:14:12.152Z,49.20
2019-05-07T15:16:42.658Z,49.90
2019-05-07T15:19:12.486Z,50.40
2019-05-07T15:21:42.587Z,51.30
2019-05-07T15:24:13.822Z,50.10
2019-05-07T15:26:43.459Z,49.00
2019-05-07T15:29:14.208Z,48.70
2019-05-07T15:32:14.348Z,46.40
2019-05-07T15:34:43.152Z,47.00
2019-05-07T15:37:12.345Z,45.80
2019-05-07T15:39:42.143Z,45.30
2019-05-07T15:42:11.223Z,45.40
2019-05-07T15:44:40.185Z,43.20
2019-05-07T15:47:14.026Z,44.30
2019-05-07T15:49:42.769Z,44.90
2019-05-07T15:52:17.542Z,44.00
2019-05-07T15:54:46.298Z,45.00
2019-05-07T15:57:19.038Z,45.00
2019-05-07T15:59:49.512Z,44.60
2019-05-07T16:02:27.015Z,44.40
2019-05-07T16:04:57.924Z,45.00
2019-05-07T16:07:26.940Z,44.20
2019-05-07T16:09:56.103Z,44.60
2019-05-07T16:12:26.567Z,43.30
2019-05-07T16:14:55.651Z,44.30
2019-05-07T16:17:37.529Z,43.90
2019-05-07T16:20:06.859Z,43.00
2019-05-07T16:22:39.338Z,45.00
2019-05-07T16:25:08.341Z,42.10
2019-05-07T16:27:42.346Z,43.00
2019-05-07T16:30:14.306Z,42.90
2019-05-07T16:32:43.063Z,42.60
2019-05-07T16:35:12.452Z,43.20
2019-05-07T16:37:42.839Z,43.40
2019-05-07T16:40:12.890Z,44.60
2019-05-07T16:42:42.871Z,43.70
2019-05-07T16:45:13.825Z,42.60
2019-05-07T16:47:42.669Z,43.30
2019-05-07T16:50:12.942Z,43.40
2019-05-07T16:52:42.380Z,43.40
2019-05-07T16:55:12.250Z,43.80
2019-05-07T16:58:15.475Z,45.40
2019-05-07T17:00:47.368Z,43.10
2019-05-07T17:03:20.674Z,44.00
2019-05-07T17:05:49.654Z,44.60
2019-05-07T17:08:32.271Z,44.30
2019-05-07T17:11:03.066Z,45.20
2019-05-07T17:13:32.064Z,44.30
2019-05-07T17:16:03.405Z,45.40
2019-05-07T17:18:32.740Z,45.60
2019-05-07T17:21:02.181Z,44.30
2019-05-07T17:23:43.825Z,45.40
2019-05-07T17:26:04.782Z,44.70
2019-05-07T17:28:33.063Z,44.40
2019-05-07T17:31:03.058Z,44.20
2019-05-07T17:33:32.471Z,45.40
2019-05-07T17:36:02.515Z,45.80
2019-05-07T17:38:32.225Z,46.00
2019-05-07T17:41:10.935Z,46.10
2019-05-07T17:43:32.606Z,46.30
2019-05-07T17:46:02.861Z,46.30
2019-05-07T17:48:32.772Z,46.60
2019-05-07T17:51:24.395Z,46.70
2019-05-07T17:53:59.407Z,45.90
2019-05-07T17:56:25.724Z,45.90
2019-05-07T17:58:54.711Z,45.80
2019-05-07T18:01:45.663Z,46.20
2019-05-07T18:04:14.757Z,47.00
2019-05-07T18:06:43.730Z,47.50
2019-05-07T18:09:12.687Z,47.20
2019-05-07T18:11:42.899Z,47.40
2019-05-07T18:14:11.890Z,47.70
2019-05-07T18:17:06.651Z,47.90
2019-05-07T18:19:35.440Z,47.60
2019-05-07T18:22:04.403Z,47.40
2019-05-07T18:24:33.294Z,48.60
2019-05-07T18:27:03.731Z,48.50
2019-05-07T18:29:32.880Z,48.90
2019-05-07T18:32:03.265Z,48.50
2019-05-07T18:34:32.330Z,49.20
2019-05-07T18:37:02.138Z,49.00
2019-05-07T18:39:32.453Z,50.20
2019-05-07T18:42:02.775Z,49.20
2019-05-07T18:44:32.520Z,49.40
2019-05-07T18:47:02.318Z,49.30
2019-05-07T18:49:31.831Z,50.50
2019-05-07T18:52:02.722Z,49.90
2019-05-07T18:54:31.737Z,49.90
2019-05-07T18:57:02.310Z,49.80
2019-05-07T18:59:33.205Z,50.10
2019-05-07T19:02:02.387Z,50.80
2019-05-07T19:04:32.789Z,50.50
2019-05-07T19:07:02.579Z,50.80
2019-05-07T19:09:32.173Z,50.70
2019-05-07T19:12:01.400Z,51.10
2019-05-07T19:14:33.142Z,50.80
2019-05-07T19:17:03.176Z,51.00
2019-05-07T19:19:32.787Z,51.30
2019-05-07T19:22:02.217Z,51.40
2019-05-07T19:24:44.183Z,51.50
2019-05-07T19:27:02.276Z,51.50
2019-05-07T19:29:32.540Z,52.00
2019-05-07T19:32:03.176Z,52.40
2019-05-07T19:34:32.528Z,52.70
2019-05-07T19:37:02.584Z,53.00
2019-05-07T19:39:32.446Z,53.10
2019-05-07T19:42:02.595Z,53.80
2019-05-07T19:44:31.673Z,54.30
2019-05-07T19:47:02.031Z,55.30
2019-05-07T19:49:32.472Z,54.90
2019-05-07T19:52:01.812Z,54.90
2019-05-07T19:54:32.393Z,55.70
2019-05-07T19:57:02.669Z,56.20
2019-05-07T19:59:32.732Z,55.50
2019-05-07T20:02:03.264Z,55.70
2019-05-07T20:04:32.229Z,56.80
2019-05-07T20:07:02.850Z,56.10
2019-05-07T20:09:34.451Z,56.00
2019-05-07T20:12:03.790Z,56.10
2019-05-07T20:14:33.236Z,57.00
2019-05-07T20:17:02.159Z,57.00
2019-05-07T20:19:32.316Z,56.50
2019-05-07T20:22:02.139Z,56.60
2019-05-07T20:24:32.578Z,57.20
2019-05-07T20:27:03.056Z,56.30
2019-05-07T20:29:32.429Z,57.00
2019-05-07T20:32:01.292Z,56.50
2019-05-07T20:34:30.233Z,56.80
2019-05-07T20:36:59.203Z,56.80
2019-05-07T20:39:27.944Z,57.50
2019-05-07T20:41:56.867Z,57.60
2019-05-07T20:44:25.857Z,58.10
2019-05-07T20:46:54.602Z,58.00
2019-05-07T20:49:23.416Z,58.10
2019-05-07T20:51:52.614Z,58.10
2019-05-07T20:54:29.676Z,58.40
2019-05-07T20:57:05.035Z,58.30
2019-05-07T20:59:33.796Z,58.40
2019-05-07T21:02:02.540Z,57.70
2019-05-07T21:04:33.054Z,58.50
2019-05-07T21:07:02.190Z,58.70
2019-05-07T21:09:32.871Z,58.40
2019-05-07T21:12:01.737Z,58.10
2019-05-07T21:14:32.438Z,58.20
2019-05-07T21:17:01.247Z,58.10
2019-05-07T21:19:30.230Z,58.20
2019-05-07T21:21:59.106Z,58.00
2019-05-07T21:24:27.951Z,58.00
2019-05-07T21:26:57.167Z,57.70
2019-05-07T21:29:26.116Z,57.80
2019-05-07T21:31:54.994Z,57.70
2019-05-07T21:34:23.894Z,58.10
2019-05-07T21:36:52.797Z,58.30
2019-05-07T21:39:22.343Z,57.60
2019-05-07T21:41:51.964Z,57.50
2019-05-07T21:44:22.675Z,57.40
2019-05-07T21:46:51.886Z,57.70
2019-05-07T21:49:22.878Z,58.30
2019-05-07T21:51:52.247Z,57.90
2019-05-07T21:54:37.962Z,57.50
2019-05-07T21:57:22.562Z,57.70
2019-05-07T22:00:12.487Z,57.50
2019-05-07T22:02:41.892Z,57.90
2019-05-07T22:05:11.837Z,57.90
2019-05-07T22:07:40.912Z,57.70
2019-05-07T22:10:09.947Z,57.50
2019-05-07T22:12:38.819Z,57.70
2019-05-07T22:15:08.131Z,57.40
2019-05-07T22:17:37.046Z,57.70
2019-05-07T22:20:06.103Z,57.70
2019-05-07T22:22:35.021Z,57.60
2019-05-07T22:25:05.306Z,58.00
2019-05-07T22:27:34.436Z,57.90
2019-05-07T22:30:04.464Z,58.70
2019-05-07T22:32:44.024Z,58.40
2019-05-07T22:35:22.710Z,58.20
2019-05-07T22:37:51.974Z,58.20
2019-05-07T22:40:22.637Z,58.30
2019-05-07T22:42:51.599Z,58.90
2019-05-07T22:45:22.539Z,58.80
2019-05-07T22:47:52.604Z,58.30
2019-05-07T22:50:22.578Z,58.10
2019-05-07T22:52:52.560Z,58.50
2019-05-07T22:55:21.995Z,59.30
2019-05-07T22:58:02.180Z,58.80
2019-05-07T23:00:37.223Z,58.80
2019-05-07T23:03:06.045Z,59.40
2019-05-07T23:05:34.918Z,58.90
2019-05-07T23:08:04.063Z,59.40
2019-05-07T23:10:33.392Z,58.80
2019-05-07T23:13:02.458Z,59.00
2019-05-07T23:15:32.190Z,60.10
2019-05-07T23:18:04.145Z,59.30
2019-05-07T23:20:32.067Z,59.20
2019-05-07T23:23:01.008Z,59.50
2019-05-07T23:25:32.071Z,59.70
2019-05-07T23:28:04.875Z,59.90
2019-05-07T23:30:33.105Z,60.10
2019-05-07T23:33:02.415Z,60.40
2019-05-07T23:35:32.869Z,59.60
2019-05-07T23:38:02.500Z,60.00
2019-05-07T23:40:49.367Z,60.50
2019-05-07T23:43:18.345Z,60.00
2019-05-07T23:45:47.130Z,60.20
2019-05-07T23:48:15.933Z,60.20
2019-05-07T23:50:44.771Z,60.20
2019-05-07T23:53:13.603Z,60.10
2019-05-07T23:55:42.556Z,60.70
2019-05-07T23:58:13.825Z,60.50
